Time;durP1;ratioP1;P1;durP2;ratioP2;P2;SDS_P1;SDS_P2;PMS_P1;PMS_P2;Temp;Humidity;BMP_temperature;BMP_pressure;BME280_temperature;BME280_humidity;BME280_pressure;Samples;Min_cycle;Max_cycle;Signal;HPM_P1;HPM_P2
2023/05/28 02:14:52;;;;;;;5.60;5.10;;;17.80;99.90;;;;;;6052010;22;2124742;-77
2023/05/28 02:17:20;;;;;;;7.60;6.88;;;17.80;99.90;;;;;;6087782;23;20716;-78
2023/05/28 02:19:47;;;;;;;7.18;5.90;;;17.80;99.90;;;;;;6087144;23;20468;-78
2023/05/28 02:22:14;;;;;;;7.00;6.30;;;17.70;99.90;;;;;;6087924;23;20388;-78
2023/05/28 02:24:41;;;;;;;7.83;7.03;;;17.70;99.90;;;;;;6088564;23;20405;-78
2023/05/28 02:27:09;;;;;;;8.32;7.55;;;17.70;99.90;;;;;;6087584;23;20389;-78
2023/05/28 02:29:35;;;;;;;7.07;6.47;;;17.60;99.90;;;;;;6089858;23;20807;-78
2023/05/28 02:32:05;;;;;;;8.48;7.63;;;17.60;99.90;;;;;;6089048;23;20470;-79
2023/05/28 02:34:34;;;;;;;7.40;6.57;;;17.60;99.90;;;;;;6091152;23;20902;-79
2023/05/28 02:37:02;;;;;;;7.45;6.75;;;17.60;99.90;;;;;;6088949;23;20780;-78
2023/05/28 02:39:31;;;;;;;6.70;6.10;;;17.60;99.90;;;;;;6089420;23;20385;-78
2023/05/28 02:41:58;;;;;;;9.10;8.10;;;17.60;99.90;;;;;;6088899;23;20393;-78
2023/05/28 02:44:27;;;;;;;8.02;7.30;;;17.60;99.90;;;;;;6089876;23;20885;-79
2023/05/28 02:46:56;;;;;;;10.10;9.10;;;17.50;99.90;;;;;;6113298;23;20385;-79
2023/05/28 02:49:26;;;;;;;10.67;8.70;;;17.50;99.90;;;;;;6089345;23;20906;-79
2023/05/28 02:51:53;;;;;;;10.63;9.55;;;17.50;99.90;;;;;;6076370;23;20800;-79
2023/05/28 02:54:20;;;;;;;11.35;10.15;;;17.50;99.90;;;;;;6075791;23;20389;-79
2023/05/28 02:56:47;;;;;;;9.20;8.30;;;17.50;99.90;;;;;;6089893;23;20381;-79
2023/05/28 02:59:15;;;;;;;12.70;9.60;;;17.50;99.90;;;;;;6089182;23;20385;-81
2023/05/28 03:02:02;;;;;;;10.40;9.32;;;17.50;99.90;;;;;;6091584;23;20396;-84
2023/05/28 03:04:38;;;;;;;10.40;9.13;;;17.50;99.90;;;;;;6091116;23;20391;-84
2023/05/28 03:07:06;;;;;;;9.43;8.48;;;17.50;99.90;;;;;;6077620;23;20420;-84
2023/05/28 03:09:41;;;;;;;10.10;8.82;;;17.60;99.90;;;;;;6090246;23;20378;-86
2023/05/28 03:12:19;;;;;;;9.98;8.98;;;17.60;99.90;;;;;;6076283;23;20389;-86
2023/05/28 03:14:49;;;;;;;9.88;8.77;;;17.50;99.90;;;;;;6074143;23;20839;-84
2023/05/28 03:17:22;;;;;;;9.77;8.68;;;17.50;99.90;;;;;;6092438;23;20378;-84
2023/05/28 03:19:53;;;;;;;11.02;8.90;;;17.40;99.90;;;;;;6093961;23;20476;-84
2023/05/28 03:22:21;;;;;;;8.65;7.85;;;17.40;99.90;;;;;;6092471;23;20389;-85
2023/05/28 03:24:57;;;;;;;8.32;7.53;;;17.40;99.90;;;;;;6094134;23;20385;-85
2023/05/28 03:27:27;;;;;;;9.03;8.13;;;17.30;99.90;;;;;;6093575;23;20392;-85
2023/05/28 03:29:58;;;;;;;9.65;8.18;;;17.30;99.90;;;;;;6090789;23;20412;-85
2023/05/28 03:32:31;;;;;;;9.07;8.17;;;17.30;99.90;;;;;;6090596;23;20723;-85
2023/05/28 03:35:00;;;;;;;9.63;8.70;;;17.30;99.90;;;;;;6061260;23;20396;-86
2023/05/28 03:37:28;;;;;;;8.53;7.57;;;17.30;99.90;;;;;;6105812;23;20385;-86
2023/05/28 03:40:00;;;;;;;9.45;8.13;;;17.30;99.90;;;;;;6090916;23;20381;-85
2023/05/28 03:42:33;;;;;;;9.05;7.90;;;17.30;99.90;;;;;;6078844;23;20381;-86
2023/05/28 03:45:00;;;;;;;9.05;8.05;;;17.40;99.90;;;;;;6086697;23;20447;-86
2023/05/28 03:47:30;;;;;;;9.93;8.93;;;17.40;99.90;;;;;;6090756;23;20402;-85
2023/05/28 03:50:00;;;;;;;11.88;10.55;;;17.40;99.90;;;;;;6091861;23;20382;-85
2023/05/28 03:52:31;;;;;;;10.07;9.07;;;17.40;99.90;;;;;;6084951;23;20376;-86
2023/05/28 03:55:22;;;;;;;11.15;10.05;;;17.40;99.90;;;;;;6099002;23;20389;-85
2023/05/28 03:57:54;;;;;;;10.90;9.80;;;17.40;99.90;;;;;;6067450;23;20394;-86
2023/05/28 04:00:22;;;;;;;10.55;9.50;;;17.40;99.90;;;;;;6094651;23;20463;-86
2023/05/28 04:03:12;;;;;;;10.93;9.70;;;17.40;99.90;;;;;;6127007;23;20439;-86
2023/05/28 04:05:42;;;;;;;11.45;9.75;;;17.50;99.90;;;;;;6042857;23;20450;-86
2023/05/28 04:08:12;;;;;;;10.43;9.33;;;17.50;99.90;;;;;;6036693;23;20431;-87
2023/05/28 04:10:43;;;;;;;8.68;7.68;;;17.50;99.90;;;;;;6036273;23;20383;-86
2023/05/28 04:13:15;;;;;;;7.53;6.32;;;17.50;99.90;;;;;;6033335;23;20375;-87
2023/05/28 04:15:45;;;;;;;6.97;6.37;;;17.50;99.90;;;;;;6051323;23;21127;-86
2023/05/28 04:18:14;;;;;;;8.48;7.07;;;17.50;99.90;;;;;;6005251;23;20389;-87
2023/05/28 04:20:49;;;;;;;8.18;7.35;;;17.50;99.90;;;;;;6046374;23;20487;-85
2023/05/28 04:23:25;;;;;;;8.70;7.85;;;17.50;99.90;;;;;;6039725;23;20383;-86
2023/05/28 04:25:54;;;;;;;7.43;6.73;;;17.50;99.90;;;;;;6038941;23;20557;-86
2023/05/28 04:28:27;;;;;;;8.75;7.88;;;17.50;99.90;;;;;;6016193;23;20473;-86
2023/05/28 04:31:11;;;;;;;9.80;8.55;;;17.50;99.90;;;;;;6027162;23;20398;-85
2023/05/28 04:33:46;;;;;;;8.30;7.43;;;17.50;99.90;;;;;;6012990;23;20410;-88
2023/05/28 04:36:19;;;;;;;10.30;9.25;;;17.60;99.90;;;;;;6032689;23;20419;-87
2023/05/28 04:38:56;;;;;;;9.57;8.40;;;17.60;99.90;;;;;;6073752;23;20374;-87
2023/05/28 04:41:25;;;;;;;8.52;7.60;;;17.60;99.90;;;;;;6083205;23;20377;-87
2023/05/28 04:43:57;;;;;;;7.30;6.60;;;17.70;99.90;;;;;;6035063;23;20464;-87
2023/05/28 04:46:25;;;;;;;7.22;6.63;;;17.80;99.90;;;;;;6048402;23;20712;-88
2023/05/28 04:48:54;;;;;;;8.68;6.82;;;17.80;99.90;;;;;;6063955;23;20393;-87
2023/05/28 04:51:28;;;;;;;8.02;7.28;;;17.80;99.90;;;;;;6095354;23;20385;-87
2023/05/28 04:54:01;;;;;;;9.27;8.30;;;17.90;99.90;;;;;;6066451;23;20386;-87
2023/05/28 04:56:29;;;;;;;8.52;7.35;;;17.90;99.90;;;;;;6090113;23;20377;-88
2023/05/28 04:59:21;;;;;;;9.57;7.40;;;18.00;99.90;;;;;;6093051;23;20377;-86
2023/05/28 05:01:49;;;;;;;7.93;7.13;;;18.00;99.90;;;;;;6091761;23;20423;-87
2023/05/28 05:04:27;;;;;;;8.53;6.90;;;18.00;99.90;;;;;;6074575;23;20983;-87
2023/05/28 05:07:00;;;;;;;6.53;6.00;;;18.10;99.90;;;;;;6106912;23;20400;-88
2023/05/28 05:09:30;;;;;;;8.55;6.90;;;18.10;99.90;;;;;;6072449;23;20378;-87
2023/05/28 05:12:00;;;;;;;7.63;6.93;;;18.20;99.90;;;;;;6070623;23;20381;-88
2023/05/28 05:14:34;;;;;;;6.47;5.88;;;18.20;99.90;;;;;;6101539;23;20407;-86
2023/05/28 05:17:08;;;;;;;7.07;5.68;;;18.30;99.90;;;;;;6058932;23;20373;-84
2023/05/28 05:19:40;;;;;;;7.30;6.57;;;18.40;99.90;;;;;;6095024;23;20391;-88
2023/05/28 05:22:12;;;;;;;6.43;5.80;;;18.40;99.90;;;;;;6130171;23;20900;-88
2023/05/28 05:24:45;;;;;;;7.88;6.18;;;18.50;99.90;;;;;;6104485;23;20427;-89
2023/05/28 05:27:13;;;;;;;6.70;6.00;;;18.60;99.90;;;;;;6098382;23;20383;-88
2023/05/28 05:29:57;;;;;;;6.30;5.65;;;18.60;99.90;;;;;;6065261;23;20373;-88
2023/05/28 05:32:29;;;;;;;6.63;5.95;;;18.80;99.90;;;;;;6080037;23;20699;-88
2023/05/28 05:35:01;;;;;;;7.63;6.20;;;18.90;99.90;;;;;;6083916;23;20529;-88
2023/05/28 05:37:30;;;;;;;7.28;5.95;;;19.00;99.90;;;;;;6074495;23;20392;-88
2023/05/28 05:40:12;;;;;;;7.93;5.90;;;19.10;99.90;;;;;;6094136;23;20718;-88
2023/05/28 05:42:40;;;;;;;7.38;6.18;;;19.20;99.90;;;;;;6093695;23;20790;-88
2023/05/28 05:45:11;;;;;;;9.20;6.70;;;19.30;99.90;;;;;;6092066;23;20389;-87
2023/05/28 05:47:40;;;;;;;8.05;5.85;;;19.40;99.90;;;;;;6078746;23;20404;-87
2023/05/28 05:50:12;;;;;;;6.38;5.75;;;19.40;99.90;;;;;;6090945;23;20388;-88
2023/05/28 05:52:45;;;;;;;6.40;5.35;;;19.50;99.90;;;;;;6091979;23;20384;-86
2023/05/28 05:55:14;;;;;;;5.18;4.68;;;19.50;99.90;;;;;;6079710;23;20894;-88
2023/05/28 05:57:41;;;;;;;6.00;5.00;;;19.50;99.90;;;;;;6084327;23;20388;-89
2023/05/28 06:00:23;;;;;;;6.22;4.38;;;19.60;99.90;;;;;;6098528;23;20789;-89
2023/05/28 06:03:00;;;;;;;5.22;4.53;;;19.60;99.90;;;;;;6109856;23;20381;-90
2023/05/28 06:05:46;;;;;;;5.07;4.53;;;19.70;99.90;;;;;;6074394;23;20409;-88
2023/05/28 06:08:15;;;;;;;6.15;4.82;;;19.80;99.90;;;;;;6101692;23;20393;-89
2023/05/28 06:10:54;;;;;;;5.18;4.70;;;19.90;99.90;;;;;;6065853;23;20385;-89
2023/05/28 06:13:24;;;;;;;5.57;4.65;;;19.90;99.90;;;;;;6085941;23;20385;-89
2023/05/28 06:15:59;;;;;;;4.55;3.78;;;20.00;99.90;;;;;;6124971;23;20842;-88
2023/05/28 06:18:29;;;;;;;4.53;4.13;;;20.10;99.90;;;;;;6062396;23;20373;-88
2023/05/28 06:21:01;;;;;;;4.88;3.92;;;20.20;99.90;;;;;;6118453;23;20935;-89
2023/05/28 06:23:38;;;;;;;4.78;4.22;;;20.30;99.90;;;;;;6031766;23;20901;-89
2023/05/28 06:26:05;;;;;;;5.20;4.30;;;20.40;99.90;;;;;;6071671;23;20641;-89
2023/05/28 06:28:35;;;;;;;5.18;3.90;;;20.50;99.90;;;;;;6050592;23;20411;-89
2023/05/28 06:31:10;;;;;;;4.80;4.03;;;20.50;99.90;;;;;;6075085;23;20379;-88
2023/05/28 06:33:42;;;;;;;5.03;4.40;;;20.60;99.90;;;;;;6095122;23;20753;-85
2023/05/28 06:36:14;;;;;;;4.85;4.05;;;20.60;99.90;;;;;;6095086;23;20387;-87
2023/05/28 06:38:43;;;;;;;6.40;4.00;;;20.70;99.90;;;;;;6071995;23;20871;-88
2023/05/28 06:41:26;;;;;;;4.28;3.78;;;20.60;98.80;;;;;;6072100;23;20393;-88
2023/05/28 06:43:56;;;;;;;4.45;4.03;;;20.70;98.90;;;;;;6083451;23;20394;-89
2023/05/28 06:46:28;;;;;;;5.50;4.35;;;20.70;98.20;;;;;;6067620;23;20381;-90
2023/05/28 06:49:01;;;;;;;4.15;3.78;;;20.70;97.50;;;;;;6094023;23;20383;-88
2023/05/28 06:51:33;;;;;;;4.68;3.85;;;20.70;96.90;;;;;;6097682;23;20549;-87
2023/05/28 06:54:05;;;;;;;5.32;4.20;;;20.80;96.90;;;;;;6070914;23;20387;-89
2023/05/28 06:56:39;;;;;;;6.25;4.88;;;20.80;96.50;;;;;;6123768;23;20407;-89
2023/05/28 06:59:11;;;;;;;6.40;4.93;;;20.90;95.90;;;;;;6121780;23;20402;-91
2023/05/28 07:01:42;;;;;;;5.03;4.53;;;20.90;95.60;;;;;;6062736;23;20459;-90
2023/05/28 07:04:13;;;;;;;6.22;4.85;;;20.90;96.20;;;;;;6088102;23;20376;-89
2023/05/28 07:06:55;;;;;;;6.32;5.65;;;21.10;98.20;;;;;;6077570;23;20371;-88
2023/05/28 07:09:49;;;;;;;6.00;5.00;;;21.30;98.60;;;;;;6104925;23;20450;-89
2023/05/28 07:12:16;;;;;;;6.00;5.00;;;21.50;97.70;;;;;;6077916;23;20383;-90
2023/05/28 07:14:48;;;;;;;6.70;4.70;;;21.60;97.00;;;;;;6084180;23;20758;-88
2023/05/28 07:17:18;;;;;;;6.40;5.07;;;21.60;94.00;;;;;;6097562;23;20431;-87
2023/05/28 07:19:50;;;;;;;4.55;4.15;;;21.70;93.70;;;;;;6094137;23;20390;-88
2023/05/28 07:22:17;;;;;;;5.22;4.72;;;21.80;94.00;;;;;;6091911;23;20378;-89
2023/05/28 07:24:48;;;;;;;5.43;4.93;;;21.90;94.20;;;;;;6072828;23;20691;-87
2023/05/28 07:27:26;;;;;;;5.18;4.68;;;22.20;94.90;;;;;;6055695;23;28785;-87
2023/05/28 07:29:56;;;;;;;8.45;5.00;;;22.30;84.40;;;;;;6095979;23;20379;-88
2023/05/28 07:32:26;;;;;;;6.50;4.80;;;22.40;78.60;;;;;;6034999;23;20484;-88
2023/05/28 07:34:57;;;;;;;6.53;4.80;;;22.60;77.90;;;;;;6060549;23;20438;-88
2023/05/28 07:37:32;;;;;;;4.55;4.15;;;22.70;82.20;;;;;;6063442;23;20383;-89
2023/05/28 07:40:04;;;;;;;6.15;4.53;;;22.80;69.20;;;;;;6105405;23;20415;-88
2023/05/28 07:42:37;;;;;;;6.20;4.30;;;22.90;65.90;;;;;;6094301;23;20533;-87
2023/05/28 07:45:13;;;;;;;4.43;3.97;;;23.00;67.20;;;;;;6031727;23;20386;-87
2023/05/28 07:47:49;;;;;;;6.72;5.55;;;23.00;72.80;;;;;;6057825;23;20395;-87
2023/05/28 07:50:21;;;;;;;6.57;5.05;;;23.20;77.30;;;;;;6076743;23;20426;-87
2023/05/28 07:52:52;;;;;;;4.93;4.20;;;23.20;79.20;;;;;;6092122;23;20463;-86
2023/05/28 07:55:19;;;;;;;6.78;5.55;;;23.40;75.40;;;;;;6096730;23;20380;-84
2023/05/28 07:58:00;;;;;;;5.93;5.03;;;23.50;75.70;;;;;;6077605;23;20394;-87
2023/05/28 08:00:30;;;;;;;6.32;5.25;;;23.50;74.30;;;;;;6081788;23;20473;-86
2023/05/28 08:02:58;;;;;;;7.45;5.18;;;23.80;78.90;;;;;;6091556;23;20390;-87
2023/05/28 08:05:26;;;;;;;4.78;4.38;;;23.90;76.20;;;;;;6099225;23;20693;-89
2023/05/28 08:08:02;;;;;;;6.43;4.77;;;24.00;76.20;;;;;;6109265;23;20391;-80
2023/05/28 08:10:34;;;;;;;5.43;4.30;;;24.10;65.50;;;;;;6120258;23;20373;-87
2023/05/28 08:13:20;;;;;;;5.32;4.32;;;24.10;61.70;;;;;;6073343;23;20415;-87
2023/05/28 08:15:51;;;;;;;6.67;4.97;;;24.10;58.60;;;;;;6095171;23;20368;-83
2023/05/28 08:18:27;;;;;;;4.85;4.40;;;24.10;65.60;;;;;;6097843;23;20383;-88
2023/05/28 08:20:56;;;;;;;7.30;4.53;;;24.20;67.00;;;;;;6096229;23;20375;-87
2023/05/28 08:23:34;;;;;;;4.68;4.10;;;24.20;58.20;;;;;;6098571;23;20699;-88
2023/05/28 08:26:04;;;;;;;4.40;4.00;;;24.20;54.80;;;;;;6121311;23;20418;-88
2023/05/28 08:28:45;;;;;;;4.37;3.80;;;24.30;57.00;;;;;;6080791;23;20927;-88
2023/05/28 08:31:15;;;;;;;6.00;4.50;;;24.40;61.10;;;;;;6099043;23;20442;-88
2023/05/28 08:33:44;;;;;;;5.80;4.47;;;24.50;57.70;;;;;;6121533;23;20390;-86
2023/05/28 08:36:18;;;;;;;6.43;4.75;;;24.60;55.50;;;;;;6062227;23;20727;-89
2023/05/28 08:38:56;;;;;;;5.53;4.33;;;24.80;58.40;;;;;;6113440;23;20426;-88
2023/05/28 08:41:28;;;;;;;5.75;4.40;;;24.90;56.80;;;;;;6090089;23;20401;-87
2023/05/28 08:43:58;;;;;;;4.93;4.00;;;24.90;53.60;;;;;;6091167;23;20471;-88
2023/05/28 08:46:34;;;;;;;7.07;4.32;;;25.00;52.80;;;;;;6055150;23;20387;-85
2023/05/28 08:49:02;;;;;;;5.60;4.17;;;25.00;53.40;;;;;;6016787;23;22771;-83
2023/05/28 08:51:33;;;;;;;6.15;3.75;;;25.00;52.10;;;;;;6088505;23;20388;-83
2023/05/28 08:54:00;;;;;;;5.25;3.97;;;24.90;50.70;;;;;;6085922;23;20389;-85
2023/05/28 08:56:28;;;;;;;4.95;3.78;;;24.80;50.30;;;;;;6089917;23;20454;-82
2023/05/28 08:58:55;;;;;;;4.68;3.63;;;24.80;51.50;;;;;;6085265;23;21007;-88
2023/05/28 09:01:23;;;;;;;12.40;6.13;;;24.90;51.20;;;;;;6090124;23;21183;-86
2023/05/28 09:03:50;;;;;;;4.80;3.70;;;25.00;52.00;;;;;;6087889;23;20473;-85
2023/05/28 09:06:17;;;;;;;5.10;4.07;;;25.10;51.40;;;;;;6089000;23;20393;-85
2023/05/28 09:08:45;;;;;;;4.80;4.28;;;25.20;51.20;;;;;;6087974;23;20389;-83
2023/05/28 09:11:13;;;;;;;5.57;4.05;;;25.20;51.90;;;;;;6089871;23;20388;-84
2023/05/28 09:13:45;;;;;;;7.05;4.72;;;25.10;52.40;;;;;;6093867;23;20385;-85
2023/05/28 09:16:23;;;;;;;5.05;3.97;;;25.20;51.30;;;;;;6094473;23;20471;-85
2023/05/28 09:19:01;;;;;;;6.00;4.43;;;25.30;53.20;;;;;;6094045;23;20384;-84
2023/05/28 09:21:28;;;;;;;4.50;4.10;;;25.50;50.90;;;;;;6094223;23;20387;-82
2023/05/28 09:23:55;;;;;;;5.70;4.13;;;25.50;51.80;;;;;;6117449;23;20856;-84
2023/05/28 09:26:22;;;;;;;6.45;4.50;;;25.60;51.40;;;;;;6093997;23;20379;-86
2023/05/28 09:28:52;;;;;;;6.30;5.23;;;25.70;50.80;;;;;;6094764;23;20387;-81
2023/05/28 09:31:19;;;;;;;4.63;4.20;;;25.70;50.40;;;;;;6093627;23;20442;-82
2023/05/28 09:33:46;;;;;;;5.80;4.53;;;25.80;50.00;;;;;;6119494;23;20386;-84
2023/05/28 09:36:17;;;;;;;6.10;4.23;;;25.80;50.90;;;;;;6092089;23;20692;-84
2023/05/28 09:38:45;;;;;;;5.68;4.30;;;25.80;51.40;;;;;;6119524;23;20383;-83
2023/05/28 09:41:23;;;;;;;57.85;52.15;;;26.00;51.10;;;;;;6093241;23;20376;-83
2023/05/28 09:44:00;;;;;;;6.35;4.63;;;26.10;50.80;;;;;;6091967;23;20395;-82
2023/05/28 09:46:36;;;;;;;5.85;4.25;;;26.10;50.30;;;;;;6093668;23;20465;-83
2023/05/28 09:49:04;;;;;;;5.35;4.63;;;26.20;51.70;;;;;;6093137;23;20390;-83
2023/05/28 09:51:32;;;;;;;4.97;4.30;;;26.20;49.70;;;;;;6094214;23;20718;-84
2023/05/28 09:54:01;;;;;;;4.60;3.90;;;26.20;51.70;;;;;;6093611;23;20467;-83
2023/05/28 09:56:33;;;;;;;17.85;16.27;;;26.40;51.90;;;;;;6090746;23;20383;-82
2023/05/28 09:59:07;;;;;;;7.53;6.72;;;26.70;54.30;;;;;;6095203;23;20390;-82
2023/05/28 10:01:51;;;;;;;7.65;6.95;;;27.10;52.20;;;;;;6094812;23;20399;-82
2023/05/28 10:04:29;;;;;;;17.67;16.07;;;27.20;49.60;;;;;;6096224;23;20399;-82
2023/05/28 10:06:57;;;;;;;8.82;8.10;;;27.20;49.00;;;;;;6117558;23;20406;-83
2023/05/28 10:09:27;;;;;;;7.35;6.40;;;27.10;48.70;;;;;;6095039;23;20383;-83
2023/05/28 10:12:06;;;;;;;12.15;11.13;;;26.90;49.10;;;;;;6092880;23;20383;-83
2023/05/28 10:14:33;;;;;;;8.15;7.35;;;27.10;51.30;;;;;;6090948;23;20391;-82
2023/05/28 10:17:00;;;;;;;12.52;10.25;;;27.20;49.30;;;;;;6090608;23;20394;-83
2023/05/28 10:19:29;;;;;;;48.90;43.65;;;27.40;49.10;;;;;;6094134;23;20397;-83
2023/05/28 10:21:57;;;;;;;46.13;41.30;;;27.40;50.40;;;;;;6092495;23;20376;-82
2023/05/28 10:24:24;;;;;;;25.92;23.33;;;27.50;51.60;;;;;;6094535;23;20383;-83
2023/05/28 10:26:53;;;;;;;9.10;6.30;;;27.60;51.90;;;;;;6093951;23;20765;-82
2023/05/28 10:29:20;;;;;;;10.73;9.63;;;27.60;49.30;;;;;;6093089;23;20386;-82
2023/05/28 10:32:03;;;;;;;29.60;25.42;;;27.50;51.20;;;;;;6093703;23;20383;-83
2023/05/28 10:34:31;;;;;;;22.45;14.10;;;27.50;50.20;;;;;;6092652;23;20402;-82
2023/05/28 10:37:03;;;;;;;11.53;9.53;;;27.30;50.60;;;;;;6094487;23;20378;-81
2023/05/28 10:39:45;;;;;;;12.57;10.63;;;27.00;51.00;;;;;;6093416;23;20387;-83
2023/05/28 10:42:17;;;;;;;7.95;7.07;;;26.90;51.60;;;;;;6093920;23;20387;-83
2023/05/28 10:44:59;;;;;;;32.77;29.47;;;26.90;52.50;;;;;;6094428;23;20459;-79
2023/05/28 10:47:33;;;;;;;287.95;253.32;;;26.90;51.20;;;;;;6122735;23;20440;-82
2023/05/28 10:50:14;;;;;;;28.67;24.67;;;26.60;52.30;;;;;;6123715;23;20725;-82
2023/05/28 10:53:11;;;;;;;38.72;30.50;;;26.40;52.20;;;;;;6096009;23;20380;-80
2023/05/28 10:55:52;;;;;;;48.85;43.78;;;26.40;51.90;;;;;;6094458;23;20407;-83
2023/05/28 10:58:36;;;;;;;50.05;45.00;;;26.40;52.40;;;;;;6096067;23;20430;-80
2023/05/28 11:01:05;;;;;;;27.90;20.30;;;26.40;52.40;;;;;;6095408;23;20762;-81
2023/05/28 11:03:43;;;;;;;19.15;16.17;;;26.30;52.30;;;;;;6096127;23;20451;-83
2023/05/28 11:06:12;;;;;;;10.68;8.32;;;26.20;51.10;;;;;;6095255;23;20439;-81
2023/05/28 11:08:47;;;;;;;18.88;17.30;;;26.00;51.80;;;;;;6121337;23;20714;-82
2023/05/28 11:11:16;;;;;;;27.92;25.65;;;26.00;52.90;;;;;;6121300;23;20367;-83
2023/05/28 11:13:45;;;;;;;40.72;36.40;;;26.20;52.50;;;;;;6095619;23;20380;-83
2023/05/28 11:16:15;;;;;;;13.25;12.02;;;26.40;52.40;;;;;;6095724;23;20573;-82
2023/05/28 11:19:05;;;;;;;47.92;43.47;;;26.50;51.50;;;;;;6119396;23;20386;-83
2023/05/28 11:21:33;;;;;;;47.97;44.40;;;26.60;50.00;;;;;;6094753;23;20946;-83
2023/05/28 11:24:05;;;;;;;28.27;26.10;;;26.70;51.20;;;;;;6096310;23;20388;-82
2023/05/28 11:26:32;;;;;;;9.43;8.50;;;26.70;49.50;;;;;;6094668;23;20407;-82
2023/05/28 11:29:00;;;;;;;22.67;20.38;;;26.50;49.80;;;;;;6095726;23;20431;-82
2023/05/28 11:31:28;;;;;;;20.25;18.65;;;26.20;49.50;;;;;;6093650;23;21217;-82
2023/05/28 11:33:56;;;;;;;6.38;5.70;;;26.10;51.20;;;;;;6094091;23;20383;-82
2023/05/28 11:36:23;;;;;;;6.85;5.85;;;26.00;51.20;;;;;;6094372;23;20434;-83
2023/05/28 11:39:06;;;;;;;6.18;5.65;;;26.10;51.00;;;;;;6093953;23;20380;-83
2023/05/28 11:41:33;;;;;;;15.10;13.90;;;26.00;49.90;;;;;;6119997;23;20383;-82
2023/05/28 11:44:00;;;;;;;8.48;7.68;;;26.10;51.30;;;;;;6095934;23;20388;-81
2023/05/28 11:46:27;;;;;;;10.63;8.83;;;26.10;52.20;;;;;;6120575;23;20443;-82
2023/05/28 11:48:54;;;;;;;7.25;6.50;;;26.10;53.70;;;;;;6095512;23;20470;-83
2023/05/28 11:51:21;;;;;;;7.18;6.40;;;26.30;52.90;;;;;;6095207;23;21036;-82
2023/05/28 11:53:48;;;;;;;9.65;7.00;;;26.50;52.90;;;;;;6095370;23;20609;-82
2023/05/28 11:56:15;;;;;;;8.65;7.75;;;26.90;52.20;;;;;;6094481;23;20718;-82
2023/05/28 11:58:48;;;;;;;7.50;6.32;;;27.30;51.70;;;;;;6096006;23;20384;-82
2023/05/28 12:01:17;;;;;;;17.55;16.27;;;27.60;50.60;;;;;;6094126;23;20384;-82
2023/05/28 12:03:44;;;;;;;6.80;6.10;;;27.70;48.90;;;;;;6120964;23;20403;-82
2023/05/28 12:06:14;;;;;;;8.95;6.65;;;27.60;48.30;;;;;;6094222;23;20396;-82
2023/05/28 12:09:03;;;;;;;7.70;5.77;;;27.50;47.00;;;;;;6121021;23;20391;-83
2023/05/28 12:11:30;;;;;;;6.93;6.20;;;27.50;48.10;;;;;;6093963;23;20388;-83
2023/05/28 12:14:07;;;;;;;8.68;6.30;;;27.70;48.80;;;;;;6095364;23;20399;-83
2023/05/28 12:16:47;;;;;;;6.68;4.80;;;28.00;49.80;;;;;;6094415;23;20458;-81
2023/05/28 12:19:15;;;;;;;7.15;5.28;;;28.20;46.90;;;;;;6093918;23;20380;-82
2023/05/28 12:21:44;;;;;;;6.97;5.15;;;28.40;49.00;;;;;;6095270;23;20379;-82
2023/05/28 12:24:13;;;;;;;5.70;4.40;;;28.50;46.20;;;;;;6095026;23;20758;-82
2023/05/28 12:26:44;;;;;;;5.60;4.97;;;28.60;45.30;;;;;;6094638;23;20410;-81
2023/05/28 12:29:11;;;;;;;6.47;5.22;;;28.40;45.10;;;;;;6094987;23;20920;-82
2023/05/28 12:31:37;;;;;;;5.85;4.50;;;28.30;45.70;;;;;;6093786;23;20786;-82
2023/05/28 12:34:05;;;;;;;4.33;3.80;;;28.10;45.50;;;;;;6095416;23;20738;-82
2023/05/28 12:36:32;;;;;;;4.50;3.93;;;28.00;46.60;;;;;;6094064;23;20375;-82
2023/05/28 12:39:00;;;;;;;6.28;4.70;;;27.90;46.80;;;;;;6121169;23;20968;-82
2023/05/28 12:41:27;;;;;;;5.47;4.97;;;27.90;47.90;;;;;;6093876;23;20384;-82
2023/05/28 12:43:54;;;;;;;4.00;3.60;;;28.00;47.50;;;;;;6095194;23;20390;-82
2023/05/28 12:46:21;;;;;;;8.17;4.57;;;28.20;48.40;;;;;;6093940;23;20387;-82
2023/05/28 12:48:48;;;;;;;6.20;4.53;;;28.40;47.20;;;;;;6094603;23;20487;-82
2023/05/28 12:51:15;;;;;;;4.25;3.85;;;28.60;46.60;;;;;;6094794;23;20384;-82
2023/05/28 12:53:43;;;;;;;4.20;3.80;;;28.80;46.00;;;;;;6094077;23;20427;-83
2023/05/28 12:56:10;;;;;;;5.18;3.88;;;28.80;45.80;;;;;;6095188;23;20715;-83
2023/05/28 12:58:37;;;;;;;5.85;3.92;;;28.80;45.60;;;;;;6093212;23;20380;-82
2023/05/28 13:01:04;;;;;;;4.60;4.05;;;28.70;44.70;;;;;;6095328;23;20372;-82
2023/05/28 13:03:32;;;;;;;5.85;4.93;;;28.50;45.60;;;;;;6093659;23;20447;-82
2023/05/28 13:05:59;;;;;;;6.53;5.13;;;28.30;44.40;;;;;;6120589;23;20391;-82
2023/05/28 13:08:26;;;;;;;5.50;4.63;;;28.00;45.10;;;;;;6119194;23;20374;-82
2023/05/28 13:10:53;;;;;;;5.05;4.55;;;28.00;47.40;;;;;;6094298;23;20387;-82
2023/05/28 13:13:21;;;;;;;6.43;5.40;;;27.90;46.10;;;;;;6092959;23;20392;-81
2023/05/28 13:15:47;;;;;;;6.07;5.05;;;27.60;44.30;;;;;;6094714;23;20427;-81
2023/05/28 13:18:14;;;;;;;5.78;5.25;;;27.40;46.90;;;;;;6094553;23;20895;-81
2023/05/28 13:20:41;;;;;;;5.22;4.72;;;27.00;46.90;;;;;;6094009;23;20957;-81
2023/05/28 13:23:08;;;;;;;5.57;4.57;;;26.80;47.80;;;;;;6120114;23;20399;-81
2023/05/28 13:25:37;;;;;;;6.85;3.83;;;26.80;49.30;;;;;;6093956;23;20383;-81
2023/05/28 13:28:04;;;;;;;4.53;4.13;;;27.20;48.80;;;;;;6094244;23;20462;-81
2023/05/28 13:30:31;;;;;;;6.63;5.45;;;27.40;47.00;;;;;;6093524;23;20390;-81
2023/05/28 13:32:58;;;;;;;5.60;4.60;;;27.50;47.00;;;;;;6094294;23;20375;-81
2023/05/28 13:35:25;;;;;;;5.13;4.50;;;27.60;48.70;;;;;;6118880;23;20718;-81
2023/05/28 13:37:52;;;;;;;5.60;5.00;;;27.70;48.40;;;;;;6094267;23;20384;-81
2023/05/28 13:40:21;;;;;;;5.28;4.78;;;28.00;48.30;;;;;;6094398;23;20383;-81
2023/05/28 13:42:49;;;;;;;5.05;4.28;;;28.00;47.90;;;;;;6093589;23;20440;-81
2023/05/28 13:45:16;;;;;;;5.63;5.03;;;27.90;47.90;;;;;;6119936;23;20395;-82
2023/05/28 13:47:42;;;;;;;4.35;3.95;;;27.90;47.40;;;;;;6093217;23;20473;-82
2023/05/28 13:50:10;;;;;;;6.00;4.38;;;28.00;47.60;;;;;;6094165;23;20458;-81
2023/05/28 13:52:37;;;;;;;5.07;4.57;;;28.20;46.90;;;;;;6093711;23;20379;-82
2023/05/28 13:55:04;;;;;;;5.10;4.30;;;28.40;45.80;;;;;;6119372;23;20379;-82
2023/05/28 13:57:31;;;;;;;4.90;3.72;;;28.60;46.20;;;;;;6093852;23;20383;-81
2023/05/28 14:00:00;;;;;;;6.07;3.97;;;28.70;45.10;;;;;;6093924;23;20438;-81
2023/05/28 14:02:27;;;;;;;3.80;3.50;;;29.00;45.00;;;;;;6093638;23;20714;-81
2023/05/28 14:04:54;;;;;;;7.50;4.60;;;29.20;43.60;;;;;;6094039;23;20446;-81
2023/05/28 14:07:21;;;;;;;6.00;5.40;;;29.20;42.90;;;;;;6094371;23;20447;-81
2023/05/28 14:09:48;;;;;;;7.53;4.93;;;29.20;44.60;;;;;;6092917;23;20746;-81
2023/05/28 14:12:15;;;;;;;6.03;4.70;;;29.10;44.30;;;;;;6094040;23;20446;-82
2023/05/28 14:14:48;;;;;;;4.72;4.20;;;28.90;46.40;;;;;;6094105;23;20372;-82
2023/05/28 14:17:15;;;;;;;5.15;4.35;;;28.80;46.10;;;;;;6094234;23;20384;-81
2023/05/28 14:19:42;;;;;;;6.18;4.68;;;28.80;47.50;;;;;;6093056;23;20691;-80
2023/05/28 14:22:12;;;;;;;6.15;4.97;;;28.60;45.70;;;;;;6094991;23;20376;-81
2023/05/28 14:24:39;;;;;;;5.22;4.65;;;28.30;46.00;;;;;;6095388;23;20777;-82
2023/05/28 14:27:06;;;;;;;4.20;3.70;;;28.00;45.90;;;;;;6095962;23;20379;-81
2023/05/28 14:29:33;;;;;;;5.93;4.57;;;27.80;47.00;;;;;;6094792;23;20387;-81
2023/05/28 14:32:00;;;;;;;5.43;4.68;;;27.60;47.70;;;;;;6096498;23;20411;-81
2023/05/28 14:34:28;;;;;;;5.60;4.43;;;27.60;47.00;;;;;;6095221;23;20438;-81
2023/05/28 14:36:55;;;;;;;5.50;4.40;;;27.40;46.30;;;;;;6095988;23;20375;-82
2023/05/28 14:39:22;;;;;;;4.60;4.10;;;27.20;47.00;;;;;;6096195;23;20438;-82
2023/05/28 14:41:49;;;;;;;4.72;4.28;;;27.00;48.20;;;;;;6095363;23;20382;-82
2023/05/28 14:44:16;;;;;;;5.20;4.45;;;26.80;47.90;;;;;;6095922;23;20718;-81
2023/05/28 14:46:43;;;;;;;7.35;5.00;;;26.70;48.70;;;;;;6094884;23;20380;-81
2023/05/28 14:49:14;;;;;;;4.60;4.15;;;26.70;48.30;;;;;;6095745;23;20710;-82
2023/05/28 14:51:41;;;;;;;5.32;4.25;;;26.60;49.10;;;;;;6095094;23;20411;-80
2023/05/28 14:54:08;;;;;;;5.78;4.68;;;26.50;49.80;;;;;;6121937;23;20371;-81
2023/05/28 14:56:35;;;;;;;6.68;4.50;;;26.30;51.20;;;;;;6095158;23;20414;-82
2023/05/28 14:59:02;;;;;;;5.00;4.50;;;26.20;51.40;;;;;;6096266;23;20376;-81
2023/05/28 15:01:29;;;;;;;5.22;4.72;;;26.10;51.50;;;;;;6095256;23;20403;-81
2023/05/28 15:03:56;;;;;;;5.65;4.88;;;25.90;52.40;;;;;;6096111;23;20382;-81
2023/05/28 15:06:23;;;;;;;5.10;4.32;;;25.80;52.50;;;;;;6095376;23;20380;-82
2023/05/28 15:08:50;;;;;;;5.03;4.15;;;25.80;53.20;;;;;;6095127;23;20695;-81
2023/05/28 15:11:17;;;;;;;7.20;5.07;;;26.00;53.30;;;;;;6120910;23;20491;-81
2023/05/28 15:13:43;;;;;;;5.85;4.70;;;26.20;51.40;;;;;;6095199;23;20380;-81
2023/05/28 15:16:10;;;;;;;5.05;4.55;;;26.50;49.80;;;;;;6096035;23;20387;-82